sensor_id;sensor_type;location;lat;lon;timestamp;P1;durP1;ratioP1;P2;durP2;ratioP2
17052;SDS011;8643;48.824;11.422;2023-04-24T00:00:56;6.13;;;3.50;;
17052;SDS011;8643;48.824;11.422;2023-04-24T00:03:25;6.03;;;3.90;;
17052;SDS011;8643;48.824;11.422;2023-04-24T00:05:54;7.10;;;4.53;;
17052;SDS011;8643;48.824;11.422;2023-04-24T00:08:25;7.82;;;4.40;;
17052;SDS011;8643;48.824;11.422;2023-04-24T00:10:54;6.28;;;4.45;;
17052;SDS011;8643;48.824;11.422;2023-04-24T00:13:22;6.57;;;3.95;;
17052;SDS011;8643;48.824;11.422;2023-04-24T00:15:51;6.80;;;3.93;;
17052;SDS011;8643;48.824;11.422;2023-04-24T00:18:21;7.17;;;4.13;;
17052;SDS011;8643;48.824;11.422;2023-04-24T00:20:50;5.97;;;3.70;;
17052;SDS011;8643;48.824;11.422;2023-04-24T00:23:18;6.10;;;3.60;;
17052;SDS011;8643;48.824;11.422;2023-04-24T00:25:47;5.75;;;3.75;;
17052;SDS011;8643;48.824;11.422;2023-04-24T00:28:16;5.85;;;3.58;;
17052;SDS011;8643;48.824;11.422;2023-04-24T00:30:45;6.32;;;3.50;;
17052;SDS011;8643;48.824;11.422;2023-04-24T00:33:13;7.70;;;3.83;;
17052;SDS011;8643;48.824;11.422;2023-04-24T00:35:43;7.22;;;4.00;;
17052;SDS011;8643;48.824;11.422;2023-04-24T00:38:14;7.03;;;3.90;;
17052;SDS011;8643;48.824;11.422;2023-04-24T00:40:42;6.57;;;3.50;;
17052;SDS011;8643;48.824;11.422;2023-04-24T00:43:11;9.25;;;3.30;;
17052;SDS011;8643;48.824;11.422;2023-04-24T00:45:40;4.97;;;3.60;;
17052;SDS011;8643;48.824;11.422;2023-04-24T00:48:09;4.80;;;3.07;;
17052;SDS011;8643;48.824;11.422;2023-04-24T00:50:39;6.83;;;3.70;;
17052;SDS011;8643;48.824;11.422;2023-04-24T00:53:09;7.20;;;3.72;;
17052;SDS011;8643;48.824;11.422;2023-04-24T00:55:38;6.93;;;3.50;;
17052;SDS011;8643;48.824;11.422;2023-04-24T00:58:07;5.57;;;3.50;;
17052;SDS011;8643;48.824;11.422;2023-04-24T01:00:36;5.77;;;3.30;;
17052;SDS011;8643;48.824;11.422;2023-04-24T01:03:05;7.37;;;3.97;;
17052;SDS011;8643;48.824;11.422;2023-04-24T01:05:35;6.53;;;3.70;;
17052;SDS011;8643;48.824;11.422;2023-04-24T01:08:04;4.63;;;3.17;;
17052;SDS011;8643;48.824;11.422;2023-04-24T01:10:35;5.07;;;3.30;;
17052;SDS011;8643;48.824;11.422;2023-04-24T01:13:06;6.40;;;3.30;;
17052;SDS011;8643;48.824;11.422;2023-04-24T01:15:36;6.70;;;3.20;;
17052;SDS011;8643;48.824;11.422;2023-04-24T01:18:06;5.27;;;3.00;;
17052;SDS011;8643;48.824;11.422;2023-04-24T01:20:35;10.93;;;3.40;;
17052;SDS011;8643;48.824;11.422;2023-04-24T01:23:08;3.97;;;2.90;;
17052;SDS011;8643;48.824;11.422;2023-04-24T01:25:37;4.47;;;2.90;;
17052;SDS011;8643;48.824;11.422;2023-04-24T01:28:06;6.60;;;3.17;;
17052;SDS011;8643;48.824;11.422;2023-04-24T01:30:35;8.13;;;3.67;;
17052;SDS011;8643;48.824;11.422;2023-04-24T01:33:03;4.20;;;3.27;;
17052;SDS011;8643;48.824;11.422;2023-04-24T01:35:33;4.70;;;3.03;;
17052;SDS011;8643;48.824;11.422;2023-04-24T01:38:02;7.10;;;3.03;;
17052;SDS011;8643;48.824;11.422;2023-04-24T01:40:33;5.30;;;2.70;;
17052;SDS011;8643;48.824;11.422;2023-04-24T01:43:02;6.10;;;3.00;;
17052;SDS011;8643;48.824;11.422;2023-04-24T01:45:32;3.73;;;2.90;;
17052;SDS011;8643;48.824;11.422;2023-04-24T01:48:03;4.83;;;2.80;;
17052;SDS011;8643;48.824;11.422;2023-04-24T01:50:32;5.33;;;2.93;;
17052;SDS011;8643;48.824;11.422;2023-04-24T01:53:02;5.20;;;2.57;;
17052;SDS011;8643;48.824;11.422;2023-04-24T01:55:33;3.27;;;2.80;;
17052;SDS011;8643;48.824;11.422;2023-04-24T01:58:01;4.07;;;3.07;;
17052;SDS011;8643;48.824;11.422;2023-04-24T02:00:30;5.10;;;3.00;;
17052;SDS011;8643;48.824;11.422;2023-04-24T02:02:59;3.90;;;2.83;;
17052;SDS011;8643;48.824;11.422;2023-04-24T02:05:29;4.53;;;2.90;;
17052;SDS011;8643;48.824;11.422;2023-04-24T02:07:58;4.13;;;2.70;;
17052;SDS011;8643;48.824;11.422;2023-04-24T02:10:26;5.13;;;2.60;;
17052;SDS011;8643;48.824;11.422;2023-04-24T02:12:56;3.92;;;2.70;;
17052;SDS011;8643;48.824;11.422;2023-04-24T02:15:26;4.10;;;2.37;;
17052;SDS011;8643;48.824;11.422;2023-04-24T02:17:55;6.80;;;2.80;;
17052;SDS011;8643;48.824;11.422;2023-04-24T02:20:24;6.90;;;2.60;;
17052;SDS011;8643;48.824;11.422;2023-04-24T02:22:53;3.30;;;2.50;;
17052;SDS011;8643;48.824;11.422;2023-04-24T02:25:21;3.10;;;2.67;;
17052;SDS011;8643;48.824;11.422;2023-04-24T02:27:54;4.17;;;2.53;;
17052;SDS011;8643;48.824;11.422;2023-04-24T02:30:25;5.30;;;2.53;;
17052;SDS011;8643;48.824;11.422;2023-04-24T02:32:54;5.47;;;2.60;;
17052;SDS011;8643;48.824;11.422;2023-04-24T02:35:22;6.00;;;2.67;;
17052;SDS011;8643;48.824;11.422;2023-04-24T02:37:51;4.03;;;2.20;;
17052;SDS011;8643;48.824;11.422;2023-04-24T02:40:20;4.00;;;2.40;;
17052;SDS011;8643;48.824;11.422;2023-04-24T02:42:48;3.97;;;2.43;;
17052;SDS011;8643;48.824;11.422;2023-04-24T02:45:19;3.87;;;2.40;;
17052;SDS011;8643;48.824;11.422;2023-04-24T02:47:47;3.20;;;2.50;;
17052;SDS011;8643;48.824;11.422;2023-04-24T02:50:16;4.67;;;2.20;;
17052;SDS011;8643;48.824;11.422;2023-04-24T02:52:44;4.67;;;2.33;;
17052;SDS011;8643;48.824;11.422;2023-04-24T02:55:13;4.43;;;2.43;;
17052;SDS011;8643;48.824;11.422;2023-04-24T02:57:42;2.03;;;1.83;;
17052;SDS011;8643;48.824;11.422;2023-04-24T03:00:11;4.23;;;2.10;;
17052;SDS011;8643;48.824;11.422;2023-04-24T03:02:42;3.50;;;2.17;;
17052;SDS011;8643;48.824;11.422;2023-04-24T03:05:11;4.33;;;2.03;;
17052;SDS011;8643;48.824;11.422;2023-04-24T03:07:39;2.70;;;1.93;;
17052;SDS011;8643;48.824;11.422;2023-04-24T03:10:08;4.10;;;1.90;;
17052;SDS011;8643;48.824;11.422;2023-04-24T03:12:37;6.00;;;2.87;;
17052;SDS011;8643;48.824;11.422;2023-04-24T03:15:07;3.37;;;2.13;;
17052;SDS011;8643;48.824;11.422;2023-04-24T03:17:36;2.57;;;1.73;;
17052;SDS011;8643;48.824;11.422;2023-04-24T03:20:07;3.23;;;2.20;;
17052;SDS011;8643;48.824;11.422;2023-04-24T03:22:37;3.50;;;2.00;;
17052;SDS011;8643;48.824;11.422;2023-04-24T03:25:07;3.13;;;1.93;;
17052;SDS011;8643;48.824;11.422;2023-04-24T03:27:37;4.73;;;2.13;;
17052;SDS011;8643;48.824;11.422;2023-04-24T03:30:18;3.53;;;2.00;;
17052;SDS011;8643;48.824;11.422;2023-04-24T03:32:55;3.43;;;1.80;;
17052;SDS011;8643;48.824;11.422;2023-04-24T03:35:29;3.80;;;2.27;;
17052;SDS011;8643;48.824;11.422;2023-04-24T03:38:01;2.43;;;1.70;;
17052;SDS011;8643;48.824;11.422;2023-04-24T03:40:48;2.77;;;1.93;;
17052;SDS011;8643;48.824;11.422;2023-04-24T03:43:35;3.33;;;1.80;;
17052;SDS011;8643;48.824;11.422;2023-04-24T03:46:05;2.63;;;1.80;;
17052;SDS011;8643;48.824;11.422;2023-04-24T03:48:40;2.67;;;2.20;;
17052;SDS011;8643;48.824;11.422;2023-04-24T03:51:11;3.97;;;2.47;;
17052;SDS011;8643;48.824;11.422;2023-04-24T03:53:44;3.10;;;2.33;;
17052;SDS011;8643;48.824;11.422;2023-04-24T03:56:17;2.87;;;1.87;;
17052;SDS011;8643;48.824;11.422;2023-04-24T03:58:46;2.50;;;2.00;;
17052;SDS011;8643;48.824;11.422;2023-04-24T04:01:15;4.17;;;2.10;;
17052;SDS011;8643;48.824;11.422;2023-04-24T04:03:50;3.07;;;2.20;;
17052;SDS011;8643;48.824;11.422;2023-04-24T04:06:23;3.10;;;1.87;;
17052;SDS011;8643;48.824;11.422;2023-04-24T04:08:54;3.17;;;2.20;;
17052;SDS011;8643;48.824;11.422;2023-04-24T04:11:23;3.63;;;1.97;;
17052;SDS011;8643;48.824;11.422;2023-04-24T04:13:52;3.47;;;1.93;;
17052;SDS011;8643;48.824;11.422;2023-04-24T04:16:21;3.90;;;2.30;;
17052;SDS011;8643;48.824;11.422;2023-04-24T04:18:55;3.07;;;1.77;;
17052;SDS011;8643;48.824;11.422;2023-04-24T04:21:26;4.10;;;1.93;;
17052;SDS011;8643;48.824;11.422;2023-04-24T04:24:04;3.30;;;1.87;;
17052;SDS011;8643;48.824;11.422;2023-04-24T04:26:37;2.83;;;1.97;;
17052;SDS011;8643;48.824;11.422;2023-04-24T04:29:09;2.37;;;1.87;;
17052;SDS011;8643;48.824;11.422;2023-04-24T04:31:41;3.00;;;2.00;;
17052;SDS011;8643;48.824;11.422;2023-04-24T04:34:12;4.80;;;2.57;;
17052;SDS011;8643;48.824;11.422;2023-04-24T04:36:42;3.50;;;2.50;;
17052;SDS011;8643;48.824;11.422;2023-04-24T04:39:34;3.33;;;2.20;;
17052;SDS011;8643;48.824;11.422;2023-04-24T04:42:10;4.37;;;2.17;;
17052;SDS011;8643;48.824;11.422;2023-04-24T04:44:42;3.30;;;1.90;;
17052;SDS011;8643;48.824;11.422;2023-04-24T04:47:16;2.70;;;1.90;;
17052;SDS011;8643;48.824;11.422;2023-04-24T04:49:45;3.00;;;1.90;;
17052;SDS011;8643;48.824;11.422;2023-04-24T04:52:22;3.77;;;1.83;;
17052;SDS011;8643;48.824;11.422;2023-04-24T04:55:05;2.73;;;1.87;;
17052;SDS011;8643;48.824;11.422;2023-04-24T04:57:58;2.60;;;1.87;;
17052;SDS011;8643;48.824;11.422;2023-04-24T05:00:28;3.93;;;2.00;;
17052;SDS011;8643;48.824;11.422;2023-04-24T05:03:06;7.67;;;3.90;;
17052;SDS011;8643;48.824;11.422;2023-04-24T05:05:51;3.93;;;2.50;;
17052;SDS011;8643;48.824;11.422;2023-04-24T05:08:21;2.67;;;1.87;;
17052;SDS011;8643;48.824;11.422;2023-04-24T05:10:53;4.00;;;1.77;;
17052;SDS011;8643;48.824;11.422;2023-04-24T05:13:25;1.80;;;1.57;;
17052;SDS011;8643;48.824;11.422;2023-04-24T05:16:14;3.13;;;1.77;;
17052;SDS011;8643;48.824;11.422;2023-04-24T05:18:43;4.03;;;1.47;;
17052;SDS011;8643;48.824;11.422;2023-04-24T05:21:15;2.67;;;1.83;;
17052;SDS011;8643;48.824;11.422;2023-04-24T05:23:50;2.83;;;1.70;;
17052;SDS011;8643;48.824;11.422;2023-04-24T05:26:34;4.60;;;1.87;;
17052;SDS011;8643;48.824;11.422;2023-04-24T05:29:06;2.87;;;1.83;;
17052;SDS011;8643;48.824;11.422;2023-04-24T05:31:35;2.33;;;1.80;;
17052;SDS011;8643;48.824;11.422;2023-04-24T05:34:04;2.77;;;1.60;;
17052;SDS011;8643;48.824;11.422;2023-04-24T05:36:33;3.00;;;1.60;;
17052;SDS011;8643;48.824;11.422;2023-04-24T05:39:04;2.33;;;1.57;;
17052;SDS011;8643;48.824;11.422;2023-04-24T05:41:33;4.80;;;1.70;;
17052;SDS011;8643;48.824;11.422;2023-04-24T05:44:02;2.00;;;1.43;;
17052;SDS011;8643;48.824;11.422;2023-04-24T05:46:31;2.13;;;1.50;;
17052;SDS011;8643;48.824;11.422;2023-04-24T05:49:00;1.73;;;1.37;;
17052;SDS011;8643;48.824;11.422;2023-04-24T05:51:31;2.43;;;1.57;;
17052;SDS011;8643;48.824;11.422;2023-04-24T05:53:59;3.33;;;1.67;;
17052;SDS011;8643;48.824;11.422;2023-04-24T05:56:31;2.60;;;1.60;;
17052;SDS011;8643;48.824;11.422;2023-04-24T05:59:02;2.10;;;1.40;;
17052;SDS011;8643;48.824;11.422;2023-04-24T06:01:31;1.93;;;1.47;;
17052;SDS011;8643;48.824;11.422;2023-04-24T06:04:08;1.93;;;1.47;;
17052;SDS011;8643;48.824;11.422;2023-04-24T06:06:37;2.20;;;1.37;;
17052;SDS011;8643;48.824;11.422;2023-04-24T06:09:06;2.20;;;1.80;;
17052;SDS011;8643;48.824;11.422;2023-04-24T06:11:36;3.83;;;1.57;;
17052;SDS011;8643;48.824;11.422;2023-04-24T06:14:08;4.10;;;1.60;;
17052;SDS011;8643;48.824;11.422;2023-04-24T06:16:36;3.90;;;2.20;;
17052;SDS011;8643;48.824;11.422;2023-04-24T06:19:17;3.13;;;1.73;;
17052;SDS011;8643;48.824;11.422;2023-04-24T06:21:46;10.13;;;1.80;;
17052;SDS011;8643;48.824;11.422;2023-04-24T06:24:14;4.53;;;1.53;;
17052;SDS011;8643;48.824;11.422;2023-04-24T06:26:45;3.28;;;1.60;;
17052;SDS011;8643;48.824;11.422;2023-04-24T06:29:13;3.67;;;1.70;;
17052;SDS011;8643;48.824;11.422;2023-04-24T06:31:42;3.03;;;1.70;;
17052;SDS011;8643;48.824;11.422;2023-04-24T06:34:11;4.10;;;1.87;;
17052;SDS011;8643;48.824;11.422;2023-04-24T06:36:40;2.83;;;1.33;;
17052;SDS011;8643;48.824;11.422;2023-04-24T06:39:09;2.90;;;1.90;;
17052;SDS011;8643;48.824;11.422;2023-04-24T06:41:38;3.10;;;1.70;;
17052;SDS011;8643;48.824;11.422;2023-04-24T06:44:15;4.55;;;1.65;;
17052;SDS011;8643;48.824;11.422;2023-04-24T06:46:44;3.43;;;1.50;;
17052;SDS011;8643;48.824;11.422;2023-04-24T06:49:13;2.40;;;1.73;;
17052;SDS011;8643;48.824;11.422;2023-04-24T06:51:42;2.05;;;1.40;;
17052;SDS011;8643;48.824;11.422;2023-04-24T06:54:11;3.40;;;1.50;;
17052;SDS011;8643;48.824;11.422;2023-04-24T06:56:40;2.17;;;1.30;;
17052;SDS011;8643;48.824;11.422;2023-04-24T06:59:08;2.20;;;1.50;;
17052;SDS011;8643;48.824;11.422;2023-04-24T07:01:38;2.13;;;1.20;;
17052;SDS011;8643;48.824;11.422;2023-04-24T07:04:07;2.65;;;1.50;;
17052;SDS011;8643;48.824;11.422;2023-04-24T07:06:36;3.72;;;1.80;;
17052;SDS011;8643;48.824;11.422;2023-04-24T07:12:15;3.50;;;1.90;;
17052;SDS011;8643;48.824;11.422;2023-04-24T07:14:46;3.13;;;1.48;;
17052;SDS011;8643;48.824;11.422;2023-04-24T07:17:17;2.22;;;1.30;;
17052;SDS011;8643;48.824;11.422;2023-04-24T07:19:46;1.90;;;1.45;;
17052;SDS011;8643;48.824;11.422;2023-04-24T07:22:14;1.75;;;1.30;;
17052;SDS011;8643;48.824;11.422;2023-04-24T07:24:44;2.08;;;1.30;;
17052;SDS011;8643;48.824;11.422;2023-04-24T07:27:12;1.70;;;1.23;;
17052;SDS011;8643;48.824;11.422;2023-04-24T07:29:41;2.00;;;1.13;;
17052;SDS011;8643;48.824;11.422;2023-04-24T07:32:11;2.38;;;1.10;;
17052;SDS011;8643;48.824;11.422;2023-04-24T07:34:40;1.33;;;1.00;;
17052;SDS011;8643;48.824;11.422;2023-04-24T07:37:09;1.50;;;1.25;;
17052;SDS011;8643;48.824;11.422;2023-04-24T07:39:38;2.90;;;1.10;;
17052;SDS011;8643;48.824;11.422;2023-04-24T07:42:07;2.17;;;1.10;;
17052;SDS011;8643;48.824;11.422;2023-04-24T07:44:36;1.60;;;1.17;;
17052;SDS011;8643;48.824;11.422;2023-04-24T07:47:04;2.57;;;1.20;;
17052;SDS011;8643;48.824;11.422;2023-04-24T07:49:33;4.10;;;1.17;;
17052;SDS011;8643;48.824;11.422;2023-04-24T07:52:03;1.83;;;1.40;;
17052;SDS011;8643;48.824;11.422;2023-04-24T07:54:32;3.53;;;1.03;;
17052;SDS011;8643;48.824;11.422;2023-04-24T07:57:00;1.70;;;1.30;;
17052;SDS011;8643;48.824;11.422;2023-04-24T07:59:29;2.93;;;1.40;;
17052;SDS011;8643;48.824;11.422;2023-04-24T08:01:57;3.27;;;1.37;;
17052;SDS011;8643;48.824;11.422;2023-04-24T08:04:27;8.63;;;1.53;;
17052;SDS011;8643;48.824;11.422;2023-04-24T08:06:56;1.70;;;1.50;;
17052;SDS011;8643;48.824;11.422;2023-04-24T08:09:26;4.50;;;1.60;;
17052;SDS011;8643;48.824;11.422;2023-04-24T08:11:55;2.63;;;1.40;;
17052;SDS011;8643;48.824;11.422;2023-04-24T08:14:24;2.17;;;1.47;;
17052;SDS011;8643;48.824;11.422;2023-04-24T08:16:53;2.57;;;1.63;;
17052;SDS011;8643;48.824;11.422;2023-04-24T08:19:23;2.00;;;1.50;;
17052;SDS011;8643;48.824;11.422;2023-04-24T08:21:51;1.90;;;1.57;;
17052;SDS011;8643;48.824;11.422;2023-04-24T08:24:20;2.57;;;1.50;;
17052;SDS011;8643;48.824;11.422;2023-04-24T08:26:50;3.17;;;1.53;;
17052;SDS011;8643;48.824;11.422;2023-04-24T08:29:20;2.57;;;1.60;;
17052;SDS011;8643;48.824;11.422;2023-04-24T08:31:49;3.80;;;1.87;;
17052;SDS011;8643;48.824;11.422;2023-04-24T08:34:18;4.30;;;1.60;;
17052;SDS011;8643;48.824;11.422;2023-04-24T08:36:46;3.77;;;1.80;;
17052;SDS011;8643;48.824;11.422;2023-04-24T08:39:15;1.57;;;1.20;;
17052;SDS011;8643;48.824;11.422;2023-04-24T08:41:45;3.93;;;1.67;;
17052;SDS011;8643;48.824;11.422;2023-04-24T08:44:19;2.80;;;1.60;;
17052;SDS011;8643;48.824;11.422;2023-04-24T08:46:48;2.60;;;1.60;;
17052;SDS011;8643;48.824;11.422;2023-04-24T08:49:18;1.90;;;1.20;;
17052;SDS011;8643;48.824;11.422;2023-04-24T08:51:47;2.30;;;1.30;;
17052;SDS011;8643;48.824;11.422;2023-04-24T08:54:18;3.20;;;1.47;;
17052;SDS011;8643;48.824;11.422;2023-04-24T08:56:47;2.08;;;1.50;;
17052;SDS011;8643;48.824;11.422;2023-04-24T08:59:16;2.42;;;1.23;;
17052;SDS011;8643;48.824;11.422;2023-04-24T09:01:46;3.83;;;1.45;;
17052;SDS011;8643;48.824;11.422;2023-04-24T09:04:19;2.63;;;1.50;;
17052;SDS011;8643;48.824;11.422;2023-04-24T09:06:51;2.47;;;1.40;;
17052;SDS011;8643;48.824;11.422;2023-04-24T09:09:24;1.50;;;1.40;;
17052;SDS011;8643;48.824;11.422;2023-04-24T09:11:53;2.17;;;1.60;;
17052;SDS011;8643;48.824;11.422;2023-04-24T09:14:23;2.30;;;1.50;;
17052;SDS011;8643;48.824;11.422;2023-04-24T09:16:53;1.50;;;1.23;;
17052;SDS011;8643;48.824;11.422;2023-04-24T09:19:22;4.35;;;1.40;;
17052;SDS011;8643;48.824;11.422;2023-04-24T09:21:51;2.50;;;1.50;;
17052;SDS011;8643;48.824;11.422;2023-04-24T09:24:21;3.47;;;1.50;;
17052;SDS011;8643;48.824;11.422;2023-04-24T09:26:55;3.22;;;1.58;;
17052;SDS011;8643;48.824;11.422;2023-04-24T09:29:29;2.42;;;1.65;;
17052;SDS011;8643;48.824;11.422;2023-04-24T09:31:59;1.95;;;1.52;;
17052;SDS011;8643;48.824;11.422;2023-04-24T09:34:46;2.78;;;1.73;;
17052;SDS011;8643;48.824;11.422;2023-04-24T09:37:28;3.90;;;1.65;;
17052;SDS011;8643;48.824;11.422;2023-04-24T09:40:07;2.63;;;1.80;;
17052;SDS011;8643;48.824;11.422;2023-04-24T09:42:36;2.35;;;1.60;;
17052;SDS011;8643;48.824;11.422;2023-04-24T09:45:09;3.75;;;1.83;;
17052;SDS011;8643;48.824;11.422;2023-04-24T09:47:41;2.63;;;1.63;;
17052;SDS011;8643;48.824;11.422;2023-04-24T09:50:11;2.42;;;1.80;;
17052;SDS011;8643;48.824;11.422;2023-04-24T09:52:45;5.53;;;1.80;;
17052;SDS011;8643;48.824;11.422;2023-04-24T09:55:23;2.97;;;1.88;;
17052;SDS011;8643;48.824;11.422;2023-04-24T09:57:54;2.28;;;1.60;;
17052;SDS011;8643;48.824;11.422;2023-04-24T10:00:28;2.28;;;1.35;;
17052;SDS011;8643;48.824;11.422;2023-04-24T10:02:59;1.77;;;1.45;;
17052;SDS011;8643;48.824;11.422;2023-04-24T10:05:30;2.08;;;1.50;;
17052;SDS011;8643;48.824;11.422;2023-04-24T10:08:00;2.97;;;2.17;;
17052;SDS011;8643;48.824;11.422;2023-04-24T10:10:30;4.68;;;1.77;;
17052;SDS011;8643;48.824;11.422;2023-04-24T10:13:01;4.15;;;2.10;;
17052;SDS011;8643;48.824;11.422;2023-04-24T10:15:32;3.72;;;2.03;;
17052;SDS011;8643;48.824;11.422;2023-04-24T10:18:05;2.65;;;1.88;;
17052;SDS011;8643;48.824;11.422;2023-04-24T10:20:36;2.03;;;1.50;;
17052;SDS011;8643;48.824;11.422;2023-04-24T10:23:05;2.60;;;1.77;;
17052;SDS011;8643;48.824;11.422;2023-04-24T10:25:34;1.67;;;1.52;;
17052;SDS011;8643;48.824;11.422;2023-04-24T10:28:04;2.47;;;1.73;;
17052;SDS011;8643;48.824;11.422;2023-04-24T10:30:37;2.83;;;2.00;;
17052;SDS011;8643;48.824;11.422;2023-04-24T10:33:10;4.55;;;1.40;;
17052;SDS011;8643;48.824;11.422;2023-04-24T10:35:40;3.22;;;0.70;;
17052;SDS011;8643;48.824;11.422;2023-04-24T10:38:16;5.40;;;0.85;;
17052;SDS011;8643;48.824;11.422;2023-04-24T10:40:56;0.80;;;0.70;;
17052;SDS011;8643;48.824;11.422;2023-04-24T10:43:35;1.20;;;0.90;;
17052;SDS011;8643;48.824;11.422;2023-04-24T10:46:05;2.10;;;0.70;;
17052;SDS011;8643;48.824;11.422;2023-04-24T10:48:41;1.00;;;0.80;;
17052;SDS011;8643;48.824;11.422;2023-04-24T10:51:12;2.10;;;1.00;;
17052;SDS011;8643;48.824;11.422;2023-04-24T10:53:41;0.93;;;0.70;;
17052;SDS011;8643;48.824;11.422;2023-04-24T10:56:10;1.50;;;0.97;;
17052;SDS011;8643;48.824;11.422;2023-04-24T10:58:41;0.53;;;0.50;;
17052;SDS011;8643;48.824;11.422;2023-04-24T11:01:24;3.30;;;0.80;;
17052;SDS011;8643;48.824;11.422;2023-04-24T11:03:56;4.70;;;0.80;;
17052;SDS011;8643;48.824;11.422;2023-04-24T11:06:29;1.88;;;0.95;;
17052;SDS011;8643;48.824;11.422;2023-04-24T11:09:03;2.33;;;1.20;;
17052;SDS011;8643;48.824;11.422;2023-04-24T11:11:34;2.95;;;1.13;;
17052;SDS011;8643;48.824;11.422;2023-04-24T11:14:04;2.03;;;1.20;;
17052;SDS011;8643;48.824;11.422;2023-04-24T11:16:38;2.35;;;1.33;;
17052;SDS011;8643;48.824;11.422;2023-04-24T11:19:20;2.40;;;1.30;;
17052;SDS011;8643;48.824;11.422;2023-04-24T11:21:55;3.35;;;1.45;;
17052;SDS011;8643;48.824;11.422;2023-04-24T11:24:29;1.83;;;1.30;;
17052;SDS011;8643;48.824;11.422;2023-04-24T11:27:11;2.38;;;1.50;;
17052;SDS011;8643;48.824;11.422;2023-04-24T11:29:46;2.67;;;1.73;;
17052;SDS011;8643;48.824;11.422;2023-04-24T11:32:27;3.50;;;1.70;;
17052;SDS011;8643;48.824;11.422;2023-04-24T11:34:58;3.58;;;1.70;;
17052;SDS011;8643;48.824;11.422;2023-04-24T11:37:28;2.20;;;1.52;;
17052;SDS011;8643;48.824;11.422;2023-04-24T11:40:01;1.70;;;1.50;;
17052;SDS011;8643;48.824;11.422;2023-04-24T11:42:33;1.73;;;1.60;;
17052;SDS011;8643;48.824;11.422;2023-04-24T11:45:06;2.75;;;1.50;;
17052;SDS011;8643;48.824;11.422;2023-04-24T11:47:38;2.15;;;1.33;;
17052;SDS011;8643;48.824;11.422;2023-04-24T11:50:08;2.03;;;1.30;;
17052;SDS011;8643;48.824;11.422;2023-04-24T11:52:39;1.63;;;1.30;;
17052;SDS011;8643;48.824;11.422;2023-04-24T11:55:22;1.52;;;1.27;;
17052;SDS011;8643;48.824;11.422;2023-04-24T11:57:54;3.42;;;1.35;;
17052;SDS011;8643;48.824;11.422;2023-04-24T12:00:25;2.17;;;1.20;;
17052;SDS011;8643;48.824;11.422;2023-04-24T12:03:04;5.07;;;1.35;;
17052;SDS011;8643;48.824;11.422;2023-04-24T12:05:35;3.60;;;1.27;;
17052;SDS011;8643;48.824;11.422;2023-04-24T12:08:04;1.88;;;1.30;;
17052;SDS011;8643;48.824;11.422;2023-04-24T12:10:35;3.03;;;1.20;;
17052;SDS011;8643;48.824;11.422;2023-04-24T12:13:04;3.38;;;1.38;;
17052;SDS011;8643;48.824;11.422;2023-04-24T12:15:33;2.45;;;1.40;;
17052;SDS011;8643;48.824;11.422;2023-04-24T12:18:03;2.78;;;1.35;;
17052;SDS011;8643;48.824;11.422;2023-04-24T12:20:33;2.90;;;1.30;;
17052;SDS011;8643;48.824;11.422;2023-04-24T12:23:02;4.43;;;1.30;;
17052;SDS011;8643;48.824;11.422;2023-04-24T12:25:31;1.73;;;1.15;;
17052;SDS011;8643;48.824;11.422;2023-04-24T12:28:08;2.13;;;1.30;;
17052;SDS011;8643;48.824;11.422;2023-04-24T12:30:39;2.95;;;1.15;;
17052;SDS011;8643;48.824;11.422;2023-04-24T12:33:12;2.58;;;1.30;;
17052;SDS011;8643;48.824;11.422;2023-04-24T12:35:45;6.03;;;1.50;;
17052;SDS011;8643;48.824;11.422;2023-04-24T12:38:15;3.45;;;1.40;;
17052;SDS011;8643;48.824;11.422;2023-04-24T12:41:00;1.63;;;1.27;;
17052;SDS011;8643;48.824;11.422;2023-04-24T12:43:30;2.53;;;1.30;;
17052;SDS011;8643;48.824;11.422;2023-04-24T12:45:59;2.10;;;1.40;;
17052;SDS011;8643;48.824;11.422;2023-04-24T12:48:29;1.88;;;1.30;;
17052;SDS011;8643;48.824;11.422;2023-04-24T12:50:58;2.95;;;1.17;;
17052;SDS011;8643;48.824;11.422;2023-04-24T12:53:28;1.95;;;1.45;;
17052;SDS011;8643;48.824;11.422;2023-04-24T12:55:58;3.28;;;1.20;;
17052;SDS011;8643;48.824;11.422;2023-04-24T12:58:26;2.17;;;1.20;;
17052;SDS011;8643;48.824;11.422;2023-04-24T13:00:55;3.03;;;1.17;;
17052;SDS011;8643;48.824;11.422;2023-04-24T13:03:24;1.85;;;1.10;;
17052;SDS011;8643;48.824;11.422;2023-04-24T13:05:54;2.95;;;1.08;;
17052;SDS011;8643;48.824;11.422;2023-04-24T13:08:23;1.63;;;1.13;;
17052;SDS011;8643;48.824;11.422;2023-04-24T13:10:52;1.60;;;1.10;;
17052;SDS011;8643;48.824;11.422;2023-04-24T13:13:21;2.28;;;0.95;;
17052;SDS011;8643;48.824;11.422;2023-04-24T13:15:50;3.45;;;1.20;;
17052;SDS011;8643;48.824;11.422;2023-04-24T13:18:18;2.17;;;1.00;;
17052;SDS011;8643;48.824;11.422;2023-04-24T13:20:47;1.80;;;1.05;;
17052;SDS011;8643;48.824;11.422;2023-04-24T13:23:17;1.02;;;0.90;;
17052;SDS011;8643;48.824;11.422;2023-04-24T13:25:45;1.15;;;1.00;;
17052;SDS011;8643;48.824;11.422;2023-04-24T13:28:14;2.10;;;1.10;;
17052;SDS011;8643;48.824;11.422;2023-04-24T13:30:42;2.20;;;1.30;;
17052;SDS011;8643;48.824;11.422;2023-04-24T13:33:11;2.25;;;1.13;;
17052;SDS011;8643;48.824;11.422;2023-04-24T13:35:40;2.78;;;1.38;;
17052;SDS011;8643;48.824;11.422;2023-04-24T13:38:08;2.53;;;1.27;;
17052;SDS011;8643;48.824;11.422;2023-04-24T13:40:38;2.47;;;1.52;;
17052;SDS011;8643;48.824;11.422;2023-04-24T13:43:06;3.00;;;1.65;;
17052;SDS011;8643;48.824;11.422;2023-04-24T13:45:35;2.90;;;1.35;;
17052;SDS011;8643;48.824;11.422;2023-04-24T13:48:04;1.45;;;1.17;;
17052;SDS011;8643;48.824;11.422;2023-04-24T13:50:33;6.50;;;1.30;;
17052;SDS011;8643;48.824;11.422;2023-04-24T13:53:01;2.10;;;1.02;;
17052;SDS011;8643;48.824;11.422;2023-04-24T13:55:30;1.40;;;1.10;;
17052;SDS011;8643;48.824;11.422;2023-04-24T13:58:00;1.38;;;1.02;;
17052;SDS011;8643;48.824;11.422;2023-04-24T14:00:29;1.20;;;1.00;;
17052;SDS011;8643;48.824;11.422;2023-04-24T14:02:57;1.63;;;1.30;;
17052;SDS011;8643;48.824;11.422;2023-04-24T14:05:27;2.55;;;1.25;;
17052;SDS011;8643;48.824;11.422;2023-04-24T14:07:56;3.13;;;1.20;;
17052;SDS011;8643;48.824;11.422;2023-04-24T14:10:24;3.22;;;1.13;;
17052;SDS011;8643;48.824;11.422;2023-04-24T14:12:53;1.92;;;1.30;;
17052;SDS011;8643;48.824;11.422;2023-04-24T14:15:23;1.60;;;1.30;;
17052;SDS011;8643;48.824;11.422;2023-04-24T14:17:52;2.35;;;1.23;;
17052;SDS011;8643;48.824;11.422;2023-04-24T14:20:20;1.23;;;1.02;;
17052;SDS011;8643;48.824;11.422;2023-04-24T14:22:49;2.88;;;1.25;;
17052;SDS011;8643;48.824;11.422;2023-04-24T14:25:18;2.70;;;1.40;;
17052;SDS011;8643;48.824;11.422;2023-04-24T14:27:48;1.63;;;1.33;;
17052;SDS011;8643;48.824;11.422;2023-04-24T14:30:17;2.42;;;1.40;;
17052;SDS011;8643;48.824;11.422;2023-04-24T14:32:48;5.68;;;1.45;;
17052;SDS011;8643;48.824;11.422;2023-04-24T14:35:17;1.65;;;1.30;;
17052;SDS011;8643;48.824;11.422;2023-04-24T14:37:45;2.92;;;1.40;;
17052;SDS011;8643;48.824;11.422;2023-04-24T14:40:14;3.72;;;1.38;;
17052;SDS011;8643;48.824;11.422;2023-04-24T14:43:03;2.38;;;1.40;;
17052;SDS011;8643;48.824;11.422;2023-04-24T14:45:32;4.78;;;1.30;;
17052;SDS011;8643;48.824;11.422;2023-04-24T14:48:02;4.03;;;1.65;;
17052;SDS011;8643;48.824;11.422;2023-04-24T14:50:31;2.47;;;1.52;;
17052;SDS011;8643;48.824;11.422;2023-04-24T14:53:00;2.67;;;1.40;;
17052;SDS011;8643;48.824;11.422;2023-04-24T14:55:29;11.32;;;1.92;;
17052;SDS011;8643;48.824;11.422;2023-04-24T14:57:59;5.55;;;1.60;;
17052;SDS011;8643;48.824;11.422;2023-04-24T15:00:28;2.33;;;1.58;;
17052;SDS011;8643;48.824;11.422;2023-04-24T15:03:01;5.88;;;1.50;;
17052;SDS011;8643;48.824;11.422;2023-04-24T15:05:30;6.30;;;1.50;;
17052;SDS011;8643;48.824;11.422;2023-04-24T15:07:59;4.40;;;1.48;;
17052;SDS011;8643;48.824;11.422;2023-04-24T15:10:27;2.15;;;1.40;;
17052;SDS011;8643;48.824;11.422;2023-04-24T15:12:57;1.60;;;1.23;;